sensor_id;sensor_type;location;lat;lon;timestamp;P1;durP1;ratioP1;P2;durP2;ratioP2
23728;SDS011;12045;60.214;24.724;2022-12-10T00:01:54;1.60;;;1.20;;
23728;SDS011;12045;60.214;24.724;2022-12-10T00:04:53;1.27;;;1.00;;
23728;SDS011;12045;60.214;24.724;2022-12-10T00:07:34;1.20;;;0.60;;
23728;SDS011;12045;60.214;24.724;2022-12-10T00:10:43;0.70;;;0.60;;
23728;SDS011;12045;60.214;24.724;2022-12-10T00:16:41;2.10;;;0.70;;
23728;SDS011;12045;60.214;24.724;2022-12-10T00:23:27;1.13;;;0.50;;
23728;SDS011;12045;60.214;24.724;2022-12-10T00:37:43;0.67;;;0.53;;
23728;SDS011;12045;60.214;24.724;2022-12-10T00:41:20;0.97;;;0.80;;
23728;SDS011;12045;60.214;24.724;2022-12-10T00:55:53;3.63;;;1.00;;
23728;SDS011;12045;60.214;24.724;2022-12-10T00:59:35;0.90;;;0.80;;
23728;SDS011;12045;60.214;24.724;2022-12-10T01:06:13;1.30;;;1.00;;
23728;SDS011;12045;60.214;24.724;2022-12-10T01:08:48;6.30;;;1.40;;
23728;SDS011;12045;60.214;24.724;2022-12-10T01:11:16;1.97;;;1.20;;
23728;SDS011;12045;60.214;24.724;2022-12-10T01:13:46;3.07;;;1.50;;
23728;SDS011;12045;60.214;24.724;2022-12-10T01:16:16;3.03;;;1.70;;
23728;SDS011;12045;60.214;24.724;2022-12-10T01:18:45;2.97;;;1.50;;
23728;SDS011;12045;60.214;24.724;2022-12-10T01:21:16;1.70;;;1.40;;
23728;SDS011;12045;60.214;24.724;2022-12-10T01:23:46;5.03;;;1.40;;
23728;SDS011;12045;60.214;24.724;2022-12-10T01:26:16;2.37;;;1.63;;
23728;SDS011;12045;60.214;24.724;2022-12-10T01:28:46;3.40;;;1.33;;
23728;SDS011;12045;60.214;24.724;2022-12-10T01:31:16;4.40;;;1.90;;
23728;SDS011;12045;60.214;24.724;2022-12-10T01:33:46;7.20;;;1.60;;
23728;SDS011;12045;60.214;24.724;2022-12-10T01:36:15;2.73;;;1.60;;
23728;SDS011;12045;60.214;24.724;2022-12-10T01:39:11;5.00;;;1.70;;
23728;SDS011;12045;60.214;24.724;2022-12-10T01:41:45;3.40;;;1.57;;
23728;SDS011;12045;60.214;24.724;2022-12-10T01:46:47;4.30;;;1.60;;
23728;SDS011;12045;60.214;24.724;2022-12-10T01:49:18;3.83;;;1.50;;
23728;SDS011;12045;60.214;24.724;2022-12-10T01:51:48;5.17;;;1.40;;
23728;SDS011;12045;60.214;24.724;2022-12-10T01:54:19;4.93;;;1.40;;
23728;SDS011;12045;60.214;24.724;2022-12-10T01:56:50;5.33;;;1.30;;
23728;SDS011;12045;60.214;24.724;2022-12-10T01:59:25;4.57;;;1.40;;
23728;SDS011;12045;60.214;24.724;2022-12-10T02:02:00;2.17;;;1.17;;
23728;SDS011;12045;60.214;24.724;2022-12-10T02:07:13;3.00;;;1.00;;
23728;SDS011;12045;60.214;24.724;2022-12-10T02:12:41;3.87;;;0.90;;
23728;SDS011;12045;60.214;24.724;2022-12-10T02:15:15;1.20;;;0.83;;
23728;SDS011;12045;60.214;24.724;2022-12-10T02:23:02;2.27;;;0.93;;
23728;SDS011;12045;60.214;24.724;2022-12-10T02:25:51;3.77;;;1.20;;
23728;SDS011;12045;60.214;24.724;2022-12-10T02:28:47;1.00;;;0.80;;
23728;SDS011;12045;60.214;24.724;2022-12-10T02:31:35;0.93;;;0.67;;
23728;SDS011;12045;60.214;24.724;2022-12-10T02:34:07;2.20;;;0.70;;
23728;SDS011;12045;60.214;24.724;2022-12-10T02:36:37;1.17;;;0.60;;
23728;SDS011;12045;60.214;24.724;2022-12-10T02:39:07;2.47;;;1.00;;
23728;SDS011;12045;60.214;24.724;2022-12-10T02:41:40;0.80;;;0.80;;
23728;SDS011;12045;60.214;24.724;2022-12-10T02:44:11;2.37;;;0.90;;
23728;SDS011;12045;60.214;24.724;2022-12-10T02:46:41;1.60;;;0.80;;
23728;SDS011;12045;60.214;24.724;2022-12-10T02:49:11;1.37;;;0.90;;
23728;SDS011;12045;60.214;24.724;2022-12-10T02:51:42;5.90;;;1.37;;
23728;SDS011;12045;60.214;24.724;2022-12-10T02:57:02;0.90;;;0.87;;
23728;SDS011;12045;60.214;24.724;2022-12-10T03:02:40;3.90;;;1.30;;
23728;SDS011;12045;60.214;24.724;2022-12-10T03:05:21;3.73;;;1.30;;
23728;SDS011;12045;60.214;24.724;2022-12-10T03:10:41;2.17;;;1.10;;
23728;SDS011;12045;60.214;24.724;2022-12-10T03:13:10;4.87;;;1.17;;
23728;SDS011;12045;60.214;24.724;2022-12-10T03:15:40;4.47;;;1.30;;
23728;SDS011;12045;60.214;24.724;2022-12-10T03:18:09;4.83;;;1.50;;
23728;SDS011;12045;60.214;24.724;2022-12-10T03:20:39;2.13;;;1.00;;
23728;SDS011;12045;60.214;24.724;2022-12-10T03:23:12;2.20;;;1.00;;
23728;SDS011;12045;60.214;24.724;2022-12-10T03:25:43;1.93;;;1.27;;
23728;SDS011;12045;60.214;24.724;2022-12-10T03:28:13;7.13;;;1.20;;
23728;SDS011;12045;60.214;24.724;2022-12-10T03:30:42;3.60;;;1.50;;
23728;SDS011;12045;60.214;24.724;2022-12-10T03:33:11;3.63;;;1.20;;
23728;SDS011;12045;60.214;24.724;2022-12-10T03:35:39;7.50;;;1.20;;
23728;SDS011;12045;60.214;24.724;2022-12-10T03:38:07;2.77;;;1.50;;
23728;SDS011;12045;60.214;24.724;2022-12-10T03:40:36;1.50;;;1.17;;
23728;SDS011;12045;60.214;24.724;2022-12-10T03:43:03;2.17;;;0.90;;
23728;SDS011;12045;60.214;24.724;2022-12-10T03:45:31;3.90;;;1.57;;
23728;SDS011;12045;60.214;24.724;2022-12-10T03:47:58;2.57;;;1.40;;
23728;SDS011;12045;60.214;24.724;2022-12-10T03:50:26;2.83;;;1.10;;
23728;SDS011;12045;60.214;24.724;2022-12-10T03:52:53;2.53;;;1.43;;
23728;SDS011;12045;60.214;24.724;2022-12-10T03:55:21;2.67;;;1.63;;
23728;SDS011;12045;60.214;24.724;2022-12-10T03:57:48;3.70;;;1.60;;
23728;SDS011;12045;60.214;24.724;2022-12-10T04:00:16;4.10;;;1.50;;
23728;SDS011;12045;60.214;24.724;2022-12-10T04:02:43;4.07;;;1.70;;
23728;SDS011;12045;60.214;24.724;2022-12-10T04:05:11;4.70;;;1.90;;
23728;SDS011;12045;60.214;24.724;2022-12-10T04:07:38;2.30;;;1.43;;
23728;SDS011;12045;60.214;24.724;2022-12-10T04:10:06;3.57;;;1.63;;
23728;SDS011;12045;60.214;24.724;2022-12-10T04:12:34;5.40;;;2.10;;
23728;SDS011;12045;60.214;24.724;2022-12-10T04:15:01;3.73;;;1.60;;
23728;SDS011;12045;60.214;24.724;2022-12-10T04:17:47;3.33;;;1.53;;
23728;SDS011;12045;60.214;24.724;2022-12-10T04:20:15;4.00;;;1.97;;
23728;SDS011;12045;60.214;24.724;2022-12-10T04:23:01;3.50;;;1.60;;
23728;SDS011;12045;60.214;24.724;2022-12-10T04:25:47;3.93;;;2.10;;
23728;SDS011;12045;60.214;24.724;2022-12-10T04:28:33;4.93;;;2.00;;
23728;SDS011;12045;60.214;24.724;2022-12-10T04:31:00;4.87;;;2.03;;
23728;SDS011;12045;60.214;24.724;2022-12-10T04:33:28;2.50;;;1.43;;
23728;SDS011;12045;60.214;24.724;2022-12-10T04:35:55;4.47;;;1.67;;
23728;SDS011;12045;60.214;24.724;2022-12-10T04:38:23;2.43;;;1.70;;
23728;SDS011;12045;60.214;24.724;2022-12-10T04:40:50;2.70;;;1.43;;
23728;SDS011;12045;60.214;24.724;2022-12-10T04:43:18;4.17;;;1.70;;
23728;SDS011;12045;60.214;24.724;2022-12-10T04:45:45;3.53;;;2.00;;
23728;SDS011;12045;60.214;24.724;2022-12-10T04:48:13;3.97;;;1.73;;
23728;SDS011;12045;60.214;24.724;2022-12-10T04:50:40;4.70;;;2.27;;
23728;SDS011;12045;60.214;24.724;2022-12-10T04:53:07;8.20;;;2.83;;
23728;SDS011;12045;60.214;24.724;2022-12-10T04:55:35;5.03;;;2.33;;
23728;SDS011;12045;60.214;24.724;2022-12-10T04:58:02;4.40;;;1.70;;
23728;SDS011;12045;60.214;24.724;2022-12-10T05:00:30;5.67;;;1.90;;
23728;SDS011;12045;60.214;24.724;2022-12-10T05:02:57;6.90;;;1.80;;
23728;SDS011;12045;60.214;24.724;2022-12-10T05:05:25;4.87;;;1.60;;
23728;SDS011;12045;60.214;24.724;2022-12-10T05:07:52;6.90;;;2.40;;
23728;SDS011;12045;60.214;24.724;2022-12-10T05:10:20;5.23;;;1.93;;
23728;SDS011;12045;60.214;24.724;2022-12-10T05:12:47;6.37;;;1.77;;
23728;SDS011;12045;60.214;24.724;2022-12-10T05:15:15;5.07;;;2.37;;
23728;SDS011;12045;60.214;24.724;2022-12-10T05:17:43;4.67;;;1.83;;
23728;SDS011;12045;60.214;24.724;2022-12-10T05:20:10;4.27;;;2.07;;
23728;SDS011;12045;60.214;24.724;2022-12-10T05:22:38;4.27;;;2.20;;
23728;SDS011;12045;60.214;24.724;2022-12-10T05:25:24;6.33;;;2.20;;
23728;SDS011;12045;60.214;24.724;2022-12-10T05:27:51;1.97;;;1.00;;
23728;SDS011;12045;60.214;24.724;2022-12-10T05:30:19;4.00;;;1.70;;
23728;SDS011;12045;60.214;24.724;2022-12-10T05:32:46;4.83;;;1.53;;
23728;SDS011;12045;60.214;24.724;2022-12-10T05:35:14;4.70;;;1.67;;
23728;SDS011;12045;60.214;24.724;2022-12-10T05:37:43;1.87;;;1.20;;
23728;SDS011;12045;60.214;24.724;2022-12-10T05:40:11;4.67;;;1.33;;
23728;SDS011;12045;60.214;24.724;2022-12-10T05:42:39;3.70;;;1.30;;
23728;SDS011;12045;60.214;24.724;2022-12-10T05:45:06;4.10;;;1.43;;
23728;SDS011;12045;60.214;24.724;2022-12-10T05:47:34;1.37;;;1.20;;
23728;SDS011;12045;60.214;24.724;2022-12-10T05:50:01;1.70;;;0.77;;
23728;SDS011;12045;60.214;24.724;2022-12-10T05:52:29;2.40;;;1.37;;
23728;SDS011;12045;60.214;24.724;2022-12-10T05:54:57;1.63;;;1.17;;
23728;SDS011;12045;60.214;24.724;2022-12-10T05:57:24;3.03;;;1.40;;
23728;SDS011;12045;60.214;24.724;2022-12-10T05:59:51;1.33;;;0.87;;
23728;SDS011;12045;60.214;24.724;2022-12-10T06:02:19;3.20;;;1.30;;
23728;SDS011;12045;60.214;24.724;2022-12-10T06:04:46;2.87;;;1.33;;
23728;SDS011;12045;60.214;24.724;2022-12-10T06:07:14;3.27;;;1.30;;
23728;SDS011;12045;60.214;24.724;2022-12-10T06:09:41;3.97;;;1.60;;
23728;SDS011;12045;60.214;24.724;2022-12-10T06:12:09;4.03;;;1.30;;
23728;SDS011;12045;60.214;24.724;2022-12-10T06:14:36;4.07;;;1.30;;
23728;SDS011;12045;60.214;24.724;2022-12-10T06:17:04;4.37;;;1.50;;
23728;SDS011;12045;60.214;24.724;2022-12-10T06:19:31;3.53;;;1.53;;
23728;SDS011;12045;60.214;24.724;2022-12-10T06:21:59;2.27;;;1.50;;
23728;SDS011;12045;60.214;24.724;2022-12-10T06:24:26;3.60;;;1.33;;
23728;SDS011;12045;60.214;24.724;2022-12-10T06:26:55;3.33;;;1.23;;
23728;SDS011;12045;60.214;24.724;2022-12-10T06:29:22;1.87;;;1.30;;
23728;SDS011;12045;60.214;24.724;2022-12-10T06:31:50;3.50;;;1.60;;
23728;SDS011;12045;60.214;24.724;2022-12-10T06:34:17;3.90;;;1.57;;
23728;SDS011;12045;60.214;24.724;2022-12-10T06:36:44;2.70;;;1.60;;
23728;SDS011;12045;60.214;24.724;2022-12-10T06:39:12;4.73;;;1.60;;
23728;SDS011;12045;60.214;24.724;2022-12-10T06:41:39;2.03;;;0.80;;
23728;SDS011;12045;60.214;24.724;2022-12-10T06:44:10;2.80;;;1.37;;
23728;SDS011;12045;60.214;24.724;2022-12-10T06:46:41;2.13;;;1.03;;
23728;SDS011;12045;60.214;24.724;2022-12-10T06:49:09;5.50;;;1.63;;
23728;SDS011;12045;60.214;24.724;2022-12-10T06:51:37;1.40;;;1.10;;
23728;SDS011;12045;60.214;24.724;2022-12-10T06:54:05;2.83;;;1.20;;
23728;SDS011;12045;60.214;24.724;2022-12-10T06:56:32;2.87;;;1.23;;
23728;SDS011;12045;60.214;24.724;2022-12-10T06:59:03;2.27;;;1.17;;
23728;SDS011;12045;60.214;24.724;2022-12-10T07:01:33;3.63;;;1.20;;
23728;SDS011;12045;60.214;24.724;2022-12-10T07:04:01;2.57;;;1.20;;
23728;SDS011;12045;60.214;24.724;2022-12-10T07:06:30;4.50;;;1.13;;
23728;SDS011;12045;60.214;24.724;2022-12-10T07:08:59;1.80;;;1.10;;
23728;SDS011;12045;60.214;24.724;2022-12-10T07:11:26;1.87;;;1.20;;
23728;SDS011;12045;60.214;24.724;2022-12-10T07:13:54;1.90;;;1.00;;
23728;SDS011;12045;60.214;24.724;2022-12-10T07:16:22;2.70;;;1.20;;
23728;SDS011;12045;60.214;24.724;2022-12-10T07:18:52;1.80;;;1.00;;
23728;SDS011;12045;60.214;24.724;2022-12-10T07:21:28;2.00;;;1.20;;
23728;SDS011;12045;60.214;24.724;2022-12-10T07:24:05;4.13;;;1.03;;
23728;SDS011;12045;60.214;24.724;2022-12-10T07:26:37;2.17;;;1.10;;
23728;SDS011;12045;60.214;24.724;2022-12-10T07:29:08;2.40;;;1.33;;
23728;SDS011;12045;60.214;24.724;2022-12-10T07:31:39;2.00;;;1.50;;
23728;SDS011;12045;60.214;24.724;2022-12-10T07:34:07;4.83;;;1.50;;
23728;SDS011;12045;60.214;24.724;2022-12-10T07:36:34;3.20;;;1.50;;
23728;SDS011;12045;60.214;24.724;2022-12-10T07:39:04;5.13;;;1.90;;
23728;SDS011;12045;60.214;24.724;2022-12-10T07:41:32;2.37;;;1.63;;
23728;SDS011;12045;60.214;24.724;2022-12-10T07:44:00;5.60;;;1.73;;
23728;SDS011;12045;60.214;24.724;2022-12-10T07:46:29;4.10;;;1.73;;
23728;SDS011;12045;60.214;24.724;2022-12-10T07:48:59;4.57;;;2.13;;
23728;SDS011;12045;60.214;24.724;2022-12-10T07:51:28;2.93;;;2.00;;
23728;SDS011;12045;60.214;24.724;2022-12-10T07:53:56;4.27;;;1.87;;
23728;SDS011;12045;60.214;24.724;2022-12-10T07:56:24;6.30;;;2.10;;
23728;SDS011;12045;60.214;24.724;2022-12-10T07:58:52;5.33;;;1.47;;
23728;SDS011;12045;60.214;24.724;2022-12-10T08:01:24;4.90;;;1.80;;
23728;SDS011;12045;60.214;24.724;2022-12-10T08:03:53;3.23;;;1.70;;
23728;SDS011;12045;60.214;24.724;2022-12-10T08:06:23;5.57;;;2.70;;
23728;SDS011;12045;60.214;24.724;2022-12-10T08:08:52;7.07;;;2.10;;
23728;SDS011;12045;60.214;24.724;2022-12-10T08:11:20;2.50;;;1.67;;
23728;SDS011;12045;60.214;24.724;2022-12-10T08:13:49;7.97;;;2.83;;
23728;SDS011;12045;60.214;24.724;2022-12-10T08:16:23;6.60;;;2.20;;
23728;SDS011;12045;60.214;24.724;2022-12-10T08:18:53;6.23;;;2.50;;
23728;SDS011;12045;60.214;24.724;2022-12-10T08:21:26;5.80;;;2.30;;
23728;SDS011;12045;60.214;24.724;2022-12-10T08:23:55;3.90;;;1.70;;
23728;SDS011;12045;60.214;24.724;2022-12-10T08:26:24;5.57;;;2.40;;
23728;SDS011;12045;60.214;24.724;2022-12-10T08:28:54;4.23;;;1.80;;
23728;SDS011;12045;60.214;24.724;2022-12-10T08:31:22;2.90;;;1.37;;
23728;SDS011;12045;60.214;24.724;2022-12-10T08:33:51;5.30;;;2.33;;
23728;SDS011;12045;60.214;24.724;2022-12-10T08:36:19;3.80;;;1.60;;
23728;SDS011;12045;60.214;24.724;2022-12-10T08:38:46;4.53;;;2.20;;
23728;SDS011;12045;60.214;24.724;2022-12-10T08:41:15;5.40;;;2.40;;
23728;SDS011;12045;60.214;24.724;2022-12-10T08:43:46;3.20;;;1.63;;
23728;SDS011;12045;60.214;24.724;2022-12-10T08:46:14;6.83;;;2.40;;
23728;SDS011;12045;60.214;24.724;2022-12-10T08:48:42;4.10;;;1.80;;
23728;SDS011;12045;60.214;24.724;2022-12-10T08:51:11;4.43;;;2.27;;
23728;SDS011;12045;60.214;24.724;2022-12-10T08:53:41;5.10;;;2.00;;
23728;SDS011;12045;60.214;24.724;2022-12-10T08:56:09;4.67;;;2.00;;
23728;SDS011;12045;60.214;24.724;2022-12-10T08:58:37;3.53;;;1.70;;
23728;SDS011;12045;60.214;24.724;2022-12-10T09:01:05;11.03;;;2.10;;
23728;SDS011;12045;60.214;24.724;2022-12-10T09:03:36;4.77;;;2.13;;
23728;SDS011;12045;60.214;24.724;2022-12-10T09:06:04;2.53;;;1.50;;
23728;SDS011;12045;60.214;24.724;2022-12-10T09:08:34;8.17;;;2.50;;
23728;SDS011;12045;60.214;24.724;2022-12-10T09:11:22;6.33;;;2.63;;
23728;SDS011;12045;60.214;24.724;2022-12-10T09:13:52;4.40;;;2.00;;
23728;SDS011;12045;60.214;24.724;2022-12-10T09:16:20;7.53;;;2.60;;
23728;SDS011;12045;60.214;24.724;2022-12-10T09:18:47;4.73;;;2.47;;
23728;SDS011;12045;60.214;24.724;2022-12-10T09:21:16;4.23;;;2.27;;
23728;SDS011;12045;60.214;24.724;2022-12-10T09:23:43;6.73;;;2.47;;
23728;SDS011;12045;60.214;24.724;2022-12-10T09:26:13;10.27;;;3.23;;
23728;SDS011;12045;60.214;24.724;2022-12-10T09:28:42;4.97;;;2.53;;
23728;SDS011;12045;60.214;24.724;2022-12-10T09:31:11;3.93;;;2.20;;
23728;SDS011;12045;60.214;24.724;2022-12-10T09:33:46;7.97;;;2.57;;
23728;SDS011;12045;60.214;24.724;2022-12-10T09:36:15;6.73;;;2.40;;
23728;SDS011;12045;60.214;24.724;2022-12-10T09:38:43;6.23;;;2.63;;
23728;SDS011;12045;60.214;24.724;2022-12-10T09:46:56;4.77;;;1.70;;
23728;SDS011;12045;60.214;24.724;2022-12-10T09:52:11;6.93;;;2.43;;
23728;SDS011;12045;60.214;24.724;2022-12-10T09:57:28;2.83;;;1.90;;
23728;SDS011;12045;60.214;24.724;2022-12-10T10:00:00;3.30;;;1.70;;
23728;SDS011;12045;60.214;24.724;2022-12-10T10:02:31;3.00;;;1.37;;
23728;SDS011;12045;60.214;24.724;2022-12-10T10:07:39;3.10;;;1.80;;
23728;SDS011;12045;60.214;24.724;2022-12-10T10:10:18;1.90;;;1.27;;
23728;SDS011;12045;60.214;24.724;2022-12-10T10:12:53;4.40;;;2.10;;
23728;SDS011;12045;60.214;24.724;2022-12-10T10:15:30;4.53;;;1.90;;
23728;SDS011;12045;60.214;24.724;2022-12-10T10:18:04;2.40;;;1.33;;
23728;SDS011;12045;60.214;24.724;2022-12-10T10:20:57;1.80;;;1.37;;
23728;SDS011;12045;60.214;24.724;2022-12-10T10:23:25;3.97;;;1.30;;
23728;SDS011;12045;60.214;24.724;2022-12-10T10:25:53;4.70;;;1.17;;
23728;SDS011;12045;60.214;24.724;2022-12-10T10:28:21;4.57;;;1.23;;
23728;SDS011;12045;60.214;24.724;2022-12-10T10:30:50;3.83;;;1.17;;
23728;SDS011;12045;60.214;24.724;2022-12-10T10:33:19;1.47;;;1.10;;
23728;SDS011;12045;60.214;24.724;2022-12-10T10:35:53;3.87;;;1.20;;
23728;SDS011;12045;60.214;24.724;2022-12-10T10:38:25;3.20;;;0.97;;
23728;SDS011;12045;60.214;24.724;2022-12-10T10:41:01;4.53;;;1.40;;
23728;SDS011;12045;60.214;24.724;2022-12-10T10:43:32;3.10;;;1.20;;
23728;SDS011;12045;60.214;24.724;2022-12-10T10:46:22;1.93;;;1.00;;
23728;SDS011;12045;60.214;24.724;2022-12-10T10:48:50;2.43;;;0.93;;
23728;SDS011;12045;60.214;24.724;2022-12-10T10:51:21;2.60;;;1.23;;
23728;SDS011;12045;60.214;24.724;2022-12-10T10:53:52;3.33;;;1.03;;
23728;SDS011;12045;60.214;24.724;2022-12-10T10:56:24;4.27;;;1.30;;
23728;SDS011;12045;60.214;24.724;2022-12-10T10:59:04;3.63;;;1.13;;
23728;SDS011;12045;60.214;24.724;2022-12-10T11:01:46;5.40;;;1.47;;
23728;SDS011;12045;60.214;24.724;2022-12-10T11:04:18;3.40;;;1.50;;
23728;SDS011;12045;60.214;24.724;2022-12-10T11:06:53;4.33;;;1.50;;
23728;SDS011;12045;60.214;24.724;2022-12-10T11:09:28;3.67;;;1.63;;
23728;SDS011;12045;60.214;24.724;2022-12-10T11:12:00;5.87;;;1.80;;
23728;SDS011;12045;60.214;24.724;2022-12-10T11:14:39;3.03;;;1.43;;
23728;SDS011;12045;60.214;24.724;2022-12-10T11:19:52;7.37;;;2.67;;
23728;SDS011;12045;60.214;24.724;2022-12-10T11:22:21;8.03;;;2.83;;
23728;SDS011;12045;60.214;24.724;2022-12-10T11:24:51;6.87;;;3.47;;
23728;SDS011;12045;60.214;24.724;2022-12-10T11:30:25;9.53;;;3.33;;
23728;SDS011;12045;60.214;24.724;2022-12-10T11:33:05;10.00;;;3.70;;
23728;SDS011;12045;60.214;24.724;2022-12-10T11:36:01;8.27;;;3.97;;
23728;SDS011;12045;60.214;24.724;2022-12-10T11:49:40;9.63;;;4.20;;
23728;SDS011;12045;60.214;24.724;2022-12-10T12:01:02;7.73;;;3.63;;
23728;SDS011;12045;60.214;24.724;2022-12-10T12:06:27;12.90;;;5.00;;
23728;SDS011;12045;60.214;24.724;2022-12-10T12:11:59;9.63;;;4.63;;
23728;SDS011;12045;60.214;24.724;2022-12-10T12:22:52;11.50;;;3.83;;
23728;SDS011;12045;60.214;24.724;2022-12-10T12:25:28;6.97;;;3.87;;
23728;SDS011;12045;60.214;24.724;2022-12-10T12:30:32;10.47;;;4.33;;
23728;SDS011;12045;60.214;24.724;2022-12-10T12:33:04;7.00;;;3.50;;
23728;SDS011;12045;60.214;24.724;2022-12-10T12:41:01;9.10;;;3.40;;
23728;SDS011;12045;60.214;24.724;2022-12-10T12:43:47;6.13;;;3.00;;
23728;SDS011;12045;60.214;24.724;2022-12-10T12:46:32;11.17;;;4.10;;
23728;SDS011;12045;60.214;24.724;2022-12-10T12:52:03;10.33;;;3.60;;
23728;SDS011;12045;60.214;24.724;2022-12-10T12:54:43;7.73;;;3.70;;
23728;SDS011;12045;60.214;24.724;2022-12-10T13:00:09;8.90;;;3.50;;
23728;SDS011;12045;60.214;24.724;2022-12-10T13:05:24;7.43;;;3.20;;
23728;SDS011;12045;60.214;24.724;2022-12-10T13:10:49;8.53;;;3.80;;
23728;SDS011;12045;60.214;24.724;2022-12-10T13:13:23;6.33;;;3.23;;
23728;SDS011;12045;60.214;24.724;2022-12-10T13:15:54;9.00;;;3.80;;
23728;SDS011;12045;60.214;24.724;2022-12-10T13:23:51;8.93;;;3.97;;
23728;SDS011;12045;60.214;24.724;2022-12-10T13:26:22;7.70;;;4.10;;
23728;SDS011;12045;60.214;24.724;2022-12-10T13:28:56;7.80;;;4.23;;
23728;SDS011;12045;60.214;24.724;2022-12-10T13:32:03;8.63;;;3.63;;
23728;SDS011;12045;60.214;24.724;2022-12-10T13:34:40;7.23;;;3.80;;
23728;SDS011;12045;60.214;24.724;2022-12-10T13:37:15;8.47;;;4.20;;
23728;SDS011;12045;60.214;24.724;2022-12-10T13:42:37;9.87;;;4.63;;
23728;SDS011;12045;60.214;24.724;2022-12-10T13:45:26;6.47;;;3.63;;
23728;SDS011;12045;60.214;24.724;2022-12-10T13:48:17;10.30;;;4.43;;
23728;SDS011;12045;60.214;24.724;2022-12-10T13:50:55;8.53;;;4.13;;
23728;SDS011;12045;60.214;24.724;2022-12-10T14:02:21;6.87;;;3.50;;
23728;SDS011;12045;60.214;24.724;2022-12-10T14:07:47;6.33;;;2.83;;
23728;SDS011;12045;60.214;24.724;2022-12-10T14:10:20;7.40;;;3.27;;
23728;SDS011;12045;60.214;24.724;2022-12-10T14:12:53;6.20;;;3.00;;
23728;SDS011;12045;60.214;24.724;2022-12-10T14:15:22;7.77;;;3.33;;
23728;SDS011;12045;60.214;24.724;2022-12-10T14:18:08;6.27;;;3.40;;
23728;SDS011;12045;60.214;24.724;2022-12-10T14:20:39;5.70;;;3.37;;
23728;SDS011;12045;60.214;24.724;2022-12-10T14:28:47;7.23;;;3.70;;
23728;SDS011;12045;60.214;24.724;2022-12-10T14:31:28;6.50;;;3.43;;
23728;SDS011;12045;60.214;24.724;2022-12-10T14:34:06;6.40;;;3.00;;
23728;SDS011;12045;60.214;24.724;2022-12-10T14:36:38;6.77;;;2.80;;
23728;SDS011;12045;60.214;24.724;2022-12-10T14:39:15;6.93;;;3.57;;
23728;SDS011;12045;60.214;24.724;2022-12-10T14:41:48;5.37;;;3.13;;
23728;SDS011;12045;60.214;24.724;2022-12-10T14:44:17;5.23;;;2.43;;
23728;SDS011;12045;60.214;24.724;2022-12-10T14:46:49;7.60;;;3.07;;
23728;SDS011;12045;60.214;24.724;2022-12-10T14:49:25;4.80;;;2.70;;
23728;SDS011;12045;60.214;24.724;2022-12-10T14:51:55;6.37;;;3.30;;
23728;SDS011;12045;60.214;24.724;2022-12-10T14:54:30;5.07;;;3.03;;
23728;SDS011;12045;60.214;24.724;2022-12-10T14:57:04;4.97;;;3.00;;
23728;SDS011;12045;60.214;24.724;2022-12-10T15:00:20;4.97;;;3.07;;
23728;SDS011;12045;60.214;24.724;2022-12-10T15:02:31;5.00;;;3.10;;
23728;SDS011;12045;60.214;24.724;2022-12-10T15:05:02;7.37;;;3.40;;
23728;SDS011;12045;60.214;24.724;2022-12-10T15:07:36;5.60;;;2.80;;
23728;SDS011;12045;60.214;24.724;2022-12-10T15:10:05;5.93;;;3.10;;
23728;SDS011;12045;60.214;24.724;2022-12-10T15:12:44;6.77;;;2.50;;
23728;SDS011;12045;60.214;24.724;2022-12-10T15:15:19;4.53;;;2.63;;
23728;SDS011;12045;60.214;24.724;2022-12-10T15:23:25;3.77;;;2.50;;
23728;SDS011;12045;60.214;24.724;2022-12-10T15:28:45;3.97;;;2.43;;
23728;SDS011;12045;60.214;24.724;2022-12-10T15:33:54;5.80;;;2.50;;
23728;SDS011;12045;60.214;24.724;2022-12-10T15:36:39;4.70;;;2.30;;
23728;SDS011;12045;60.214;24.724;2022-12-10T15:39:23;4.13;;;2.60;;
23728;SDS011;12045;60.214;24.724;2022-12-10T15:42:27;7.70;;;2.27;;
23728;SDS011;12045;60.214;24.724;2022-12-10T15:45:01;3.10;;;1.80;;
23728;SDS011;12045;60.214;24.724;2022-12-10T15:47:31;3.00;;;2.23;;
23728;SDS011;12045;60.214;24.724;2022-12-10T15:50:00;4.33;;;2.27;;
23728;SDS011;12045;60.214;24.724;2022-12-10T15:52:28;7.57;;;2.47;;
23728;SDS011;12045;60.214;24.724;2022-12-10T15:54:57;3.70;;;2.30;;
23728;SDS011;12045;60.214;24.724;2022-12-10T15:57:30;4.53;;;2.03;;
23728;SDS011;12045;60.214;24.724;2022-12-10T16:00:07;3.60;;;2.23;;
23728;SDS011;12045;60.214;24.724;2022-12-10T16:02:48;7.43;;;2.70;;
23728;SDS011;12045;60.214;24.724;2022-12-10T16:05:18;4.47;;;2.33;;
23728;SDS011;12045;60.214;24.724;2022-12-10T16:07:49;5.27;;;2.40;;
23728;SDS011;12045;60.214;24.724;2022-12-10T16:10:20;4.90;;;2.17;;
23728;SDS011;12045;60.214;24.724;2022-12-10T16:12:53;3.70;;;2.10;;
23728;SDS011;12045;60.214;24.724;2022-12-10T16:15:27;3.17;;;2.00;;
23728;SDS011;12045;60.214;24.724;2022-12-10T16:17:58;6.97;;;2.63;;
23728;SDS011;12045;60.214;24.724;2022-12-10T16:20:26;6.13;;;2.23;;
23728;SDS011;12045;60.214;24.724;2022-12-10T16:22:56;3.43;;;2.33;;
23728;SDS011;12045;60.214;24.724;2022-12-10T16:25:25;3.77;;;2.17;;
23728;SDS011;12045;60.214;24.724;2022-12-10T16:27:56;5.27;;;2.27;;
23728;SDS011;12045;60.214;24.724;2022-12-10T16:30:37;5.47;;;2.60;;
23728;SDS011;12045;60.214;24.724;2022-12-10T16:33:14;3.53;;;2.27;;
23728;SDS011;12045;60.214;24.724;2022-12-10T16:35:42;3.37;;;2.43;;
23728;SDS011;12045;60.214;24.724;2022-12-10T16:38:10;5.40;;;2.30;;
23728;SDS011;12045;60.214;24.724;2022-12-10T16:40:38;4.43;;;2.57;;
23728;SDS011;12045;60.214;24.724;2022-12-10T16:43:20;5.00;;;2.70;;
23728;SDS011;12045;60.214;24.724;2022-12-10T16:45:50;4.07;;;2.43;;
23728;SDS011;12045;60.214;24.724;2022-12-10T16:48:18;6.30;;;2.93;;
23728;SDS011;12045;60.214;24.724;2022-12-10T16:50:45;6.83;;;3.07;;
23728;SDS011;12045;60.214;24.724;2022-12-10T16:53:17;6.70;;;2.77;;
23728;SDS011;12045;60.214;24.724;2022-12-10T16:55:53;8.60;;;3.30;;
23728;SDS011;12045;60.214;24.724;2022-12-10T16:58:24;8.30;;;3.13;;
23728;SDS011;12045;60.214;24.724;2022-12-10T17:00:53;6.93;;;3.03;;
23728;SDS011;12045;60.214;24.724;2022-12-10T17:03:22;8.97;;;3.20;;
23728;SDS011;12045;60.214;24.724;2022-12-10T17:05:58;7.47;;;3.03;;
23728;SDS011;12045;60.214;24.724;2022-12-10T17:08:27;7.80;;;3.13;;
23728;SDS011;12045;60.214;24.724;2022-12-10T17:10:56;6.77;;;3.67;;
23728;SDS011;12045;60.214;24.724;2022-12-10T17:13:43;6.80;;;3.80;;
23728;SDS011;12045;60.214;24.724;2022-12-10T17:16:12;7.33;;;3.53;;
23728;SDS011;12045;60.214;24.724;2022-12-10T17:18:44;5.43;;;3.37;;
23728;SDS011;12045;60.214;24.724;2022-12-10T17:21:11;8.57;;;3.57;;
23728;SDS011;12045;60.214;24.724;2022-12-10T17:23:39;8.07;;;4.03;;
23728;SDS011;12045;60.214;24.724;2022-12-10T17:26:06;6.63;;;4.13;;
23728;SDS011;12045;60.214;24.724;2022-12-10T17:28:42;7.73;;;3.77;;
23728;SDS011;12045;60.214;24.724;2022-12-10T17:31:09;7.13;;;3.60;;
23728;SDS011;12045;60.214;24.724;2022-12-10T17:33:37;8.83;;;4.23;;
23728;SDS011;12045;60.214;24.724;2022-12-10T17:36:04;8.90;;;4.07;;
23728;SDS011;12045;60.214;24.724;2022-12-10T17:38:35;7.50;;;4.27;;
23728;SDS011;12045;60.214;24.724;2022-12-10T17:41:02;8.83;;;4.43;;
23728;SDS011;12045;60.214;24.724;2022-12-10T17:43:32;9.63;;;4.47;;
23728;SDS011;12045;60.214;24.724;2022-12-10T17:46:00;8.80;;;4.37;;
23728;SDS011;12045;60.214;24.724;2022-12-10T17:48:28;5.50;;;3.17;;
23728;SDS011;12045;60.214;24.724;2022-12-10T17:50:55;6.40;;;3.50;;